sensor_id;sensor_type;location;lat;lon;timestamp;P1;durP1;ratioP1;P2;durP2;ratioP2
46090;SDS011;31826;53.572;10.170;2023-07-31T00:01:15;5.53;;;1.73;;
46090;SDS011;31826;53.572;10.170;2023-07-31T00:03:41;4.93;;;1.70;;
46090;SDS011;31826;53.572;10.170;2023-07-31T00:06:06;6.60;;;2.00;;
46090;SDS011;31826;53.572;10.170;2023-07-31T00:08:32;6.87;;;2.03;;
46090;SDS011;31826;53.572;10.170;2023-07-31T00:10:58;3.27;;;1.60;;
46090;SDS011;31826;53.572;10.170;2023-07-31T00:13:23;5.50;;;1.60;;
46090;SDS011;31826;53.572;10.170;2023-07-31T00:15:49;4.80;;;1.70;;
46090;SDS011;31826;53.572;10.170;2023-07-31T00:18:15;6.03;;;1.77;;
46090;SDS011;31826;53.572;10.170;2023-07-31T00:20:41;4.80;;;1.40;;
46090;SDS011;31826;53.572;10.170;2023-07-31T00:23:06;3.77;;;1.37;;
46090;SDS011;31826;53.572;10.170;2023-07-31T00:25:32;4.83;;;2.00;;
46090;SDS011;31826;53.572;10.170;2023-07-31T00:27:57;5.88;;;1.65;;
46090;SDS011;31826;53.572;10.170;2023-07-31T00:30:23;6.60;;;1.80;;
46090;SDS011;31826;53.572;10.170;2023-07-31T00:32:50;4.25;;;1.50;;
46090;SDS011;31826;53.572;10.170;2023-07-31T00:35:16;8.07;;;2.00;;
46090;SDS011;31826;53.572;10.170;2023-07-31T00:37:41;4.80;;;1.53;;
46090;SDS011;31826;53.572;10.170;2023-07-31T00:40:07;7.73;;;2.10;;
46090;SDS011;31826;53.572;10.170;2023-07-31T00:42:33;5.68;;;1.70;;
46090;SDS011;31826;53.572;10.170;2023-07-31T00:44:59;6.07;;;1.83;;
46090;SDS011;31826;53.572;10.170;2023-07-31T00:47:25;8.83;;;1.93;;
46090;SDS011;31826;53.572;10.170;2023-07-31T00:49:51;8.37;;;1.70;;
46090;SDS011;31826;53.572;10.170;2023-07-31T00:52:17;6.80;;;2.00;;
46090;SDS011;31826;53.572;10.170;2023-07-31T00:54:44;4.28;;;1.60;;
46090;SDS011;31826;53.572;10.170;2023-07-31T00:57:10;3.28;;;1.65;;
46090;SDS011;31826;53.572;10.170;2023-07-31T00:59:36;7.90;;;2.60;;
46090;SDS011;31826;53.572;10.170;2023-07-31T01:02:01;3.20;;;1.70;;
46090;SDS011;31826;53.572;10.170;2023-07-31T01:04:28;5.63;;;2.03;;
46090;SDS011;31826;53.572;10.170;2023-07-31T01:07:11;5.50;;;1.60;;
46090;SDS011;31826;53.572;10.170;2023-07-31T01:10:16;3.72;;;1.48;;
46090;SDS011;31826;53.572;10.170;2023-07-31T01:12:46;7.45;;;1.80;;
46090;SDS011;31826;53.572;10.170;2023-07-31T01:15:13;4.78;;;1.52;;
46090;SDS011;31826;53.572;10.170;2023-07-31T01:17:41;7.20;;;1.92;;
46090;SDS011;31826;53.572;10.170;2023-07-31T01:20:11;4.83;;;1.67;;
46090;SDS011;31826;53.572;10.170;2023-07-31T01:25:35;5.95;;;1.80;;
46090;SDS011;31826;53.572;10.170;2023-07-31T01:28:30;6.72;;;1.85;;
46090;SDS011;31826;53.572;10.170;2023-07-31T01:31:20;6.43;;;1.75;;
46090;SDS011;31826;53.572;10.170;2023-07-31T01:33:51;5.80;;;1.90;;
46090;SDS011;31826;53.572;10.170;2023-07-31T01:36:19;5.25;;;1.60;;
46090;SDS011;31826;53.572;10.170;2023-07-31T01:38:45;7.05;;;1.88;;
46090;SDS011;31826;53.572;10.170;2023-07-31T01:41:11;5.97;;;1.63;;
46090;SDS011;31826;53.572;10.170;2023-07-31T01:43:37;7.05;;;1.63;;
46090;SDS011;31826;53.572;10.170;2023-07-31T01:46:02;5.07;;;1.73;;
46090;SDS011;31826;53.572;10.170;2023-07-31T01:48:28;5.45;;;1.60;;
46090;SDS011;31826;53.572;10.170;2023-07-31T01:50:54;6.83;;;2.00;;
46090;SDS011;31826;53.572;10.170;2023-07-31T01:53:19;6.30;;;1.80;;
46090;SDS011;31826;53.572;10.170;2023-07-31T01:55:45;3.27;;;1.70;;
46090;SDS011;31826;53.572;10.170;2023-07-31T01:58:11;6.30;;;1.83;;
46090;SDS011;31826;53.572;10.170;2023-07-31T02:00:36;7.47;;;2.30;;
46090;SDS011;31826;53.572;10.170;2023-07-31T02:03:02;7.47;;;2.00;;
46090;SDS011;31826;53.572;10.170;2023-07-31T02:05:28;4.23;;;1.90;;
46090;SDS011;31826;53.572;10.170;2023-07-31T02:07:53;4.97;;;1.87;;
46090;SDS011;31826;53.572;10.170;2023-07-31T02:10:19;4.93;;;2.00;;
46090;SDS011;31826;53.572;10.170;2023-07-31T02:12:44;7.63;;;1.85;;
46090;SDS011;31826;53.572;10.170;2023-07-31T02:15:10;7.00;;;2.10;;
46090;SDS011;31826;53.572;10.170;2023-07-31T02:17:36;5.07;;;1.63;;
46090;SDS011;31826;53.572;10.170;2023-07-31T02:20:01;5.03;;;2.07;;
46090;SDS011;31826;53.572;10.170;2023-07-31T02:22:27;5.68;;;2.33;;
46090;SDS011;31826;53.572;10.170;2023-07-31T02:24:53;7.05;;;1.90;;
46090;SDS011;31826;53.572;10.170;2023-07-31T02:27:19;5.32;;;1.92;;
46090;SDS011;31826;53.572;10.170;2023-07-31T02:29:44;5.85;;;2.00;;
46090;SDS011;31826;53.572;10.170;2023-07-31T02:32:10;10.57;;;2.23;;
46090;SDS011;31826;53.572;10.170;2023-07-31T02:34:36;6.00;;;1.83;;
46090;SDS011;31826;53.572;10.170;2023-07-31T02:37:01;6.67;;;1.80;;
46090;SDS011;31826;53.572;10.170;2023-07-31T02:39:27;6.75;;;2.40;;
46090;SDS011;31826;53.572;10.170;2023-07-31T02:41:52;7.22;;;2.00;;
46090;SDS011;31826;53.572;10.170;2023-07-31T02:44:18;8.53;;;2.43;;
46090;SDS011;31826;53.572;10.170;2023-07-31T02:46:45;6.97;;;2.20;;
46090;SDS011;31826;53.572;10.170;2023-07-31T02:49:11;5.37;;;1.93;;
46090;SDS011;31826;53.572;10.170;2023-07-31T02:51:36;5.70;;;1.90;;
46090;SDS011;31826;53.572;10.170;2023-07-31T02:54:02;7.18;;;2.38;;
46090;SDS011;31826;53.572;10.170;2023-07-31T02:56:28;7.88;;;2.60;;
46090;SDS011;31826;53.572;10.170;2023-07-31T02:58:53;7.07;;;1.93;;
46090;SDS011;31826;53.572;10.170;2023-07-31T03:01:19;5.40;;;2.00;;
46090;SDS011;31826;53.572;10.170;2023-07-31T03:03:44;4.43;;;2.00;;
46090;SDS011;31826;53.572;10.170;2023-07-31T03:06:12;4.60;;;1.85;;
46090;SDS011;31826;53.572;10.170;2023-07-31T03:08:38;4.93;;;2.10;;
46090;SDS011;31826;53.572;10.170;2023-07-31T03:11:03;8.00;;;2.30;;
46090;SDS011;31826;53.572;10.170;2023-07-31T03:13:29;7.03;;;1.98;;
46090;SDS011;31826;53.572;10.170;2023-07-31T03:15:54;4.70;;;2.10;;
46090;SDS011;31826;53.572;10.170;2023-07-31T03:18:20;9.20;;;2.03;;
46090;SDS011;31826;53.572;10.170;2023-07-31T03:20:46;7.20;;;2.47;;
46090;SDS011;31826;53.572;10.170;2023-07-31T03:23:11;9.30;;;2.57;;
46090;SDS011;31826;53.572;10.170;2023-07-31T03:25:37;6.35;;;2.50;;
46090;SDS011;31826;53.572;10.170;2023-07-31T03:28:03;5.53;;;1.95;;
46090;SDS011;31826;53.572;10.170;2023-07-31T03:30:28;8.25;;;2.38;;
46090;SDS011;31826;53.572;10.170;2023-07-31T03:32:54;5.43;;;1.90;;
46090;SDS011;31826;53.572;10.170;2023-07-31T03:35:20;8.83;;;3.30;;
46090;SDS011;31826;53.572;10.170;2023-07-31T03:37:45;6.93;;;2.10;;
46090;SDS011;31826;53.572;10.170;2023-07-31T03:40:12;7.97;;;2.50;;
46090;SDS011;31826;53.572;10.170;2023-07-31T03:42:37;10.70;;;2.77;;
46090;SDS011;31826;53.572;10.170;2023-07-31T03:45:03;4.93;;;2.30;;
46090;SDS011;31826;53.572;10.170;2023-07-31T03:47:29;4.75;;;2.13;;
46090;SDS011;31826;53.572;10.170;2023-07-31T03:49:55;6.83;;;2.20;;
46090;SDS011;31826;53.572;10.170;2023-07-31T03:52:21;5.40;;;2.08;;
46090;SDS011;31826;53.572;10.170;2023-07-31T03:54:46;6.70;;;2.13;;
46090;SDS011;31826;53.572;10.170;2023-07-31T03:57:12;2.50;;;1.80;;
46090;SDS011;31826;53.572;10.170;2023-07-31T03:59:38;5.83;;;2.60;;
46090;SDS011;31826;53.572;10.170;2023-07-31T04:02:04;4.73;;;2.17;;
46090;SDS011;31826;53.572;10.170;2023-07-31T04:04:30;5.63;;;2.28;;
46090;SDS011;31826;53.572;10.170;2023-07-31T04:06:56;7.35;;;2.60;;
46090;SDS011;31826;53.572;10.170;2023-07-31T04:09:21;6.03;;;2.53;;
46090;SDS011;31826;53.572;10.170;2023-07-31T04:11:47;5.63;;;2.40;;
46090;SDS011;31826;53.572;10.170;2023-07-31T04:14:13;5.27;;;2.27;;
46090;SDS011;31826;53.572;10.170;2023-07-31T04:16:38;6.40;;;2.20;;
46090;SDS011;31826;53.572;10.170;2023-07-31T04:19:04;6.88;;;2.50;;
46090;SDS011;31826;53.572;10.170;2023-07-31T04:21:30;5.50;;;2.33;;
46090;SDS011;31826;53.572;10.170;2023-07-31T04:23:55;6.30;;;2.53;;
46090;SDS011;31826;53.572;10.170;2023-07-31T04:26:21;7.40;;;2.53;;
46090;SDS011;31826;53.572;10.170;2023-07-31T04:28:47;7.30;;;2.50;;
46090;SDS011;31826;53.572;10.170;2023-07-31T04:31:13;5.63;;;2.30;;
46090;SDS011;31826;53.572;10.170;2023-07-31T04:33:38;5.67;;;2.20;;
46090;SDS011;31826;53.572;10.170;2023-07-31T04:36:04;8.25;;;2.50;;
46090;SDS011;31826;53.572;10.170;2023-07-31T04:38:30;5.03;;;2.63;;
46090;SDS011;31826;53.572;10.170;2023-07-31T04:40:56;7.07;;;2.75;;
46090;SDS011;31826;53.572;10.170;2023-07-31T04:43:21;5.03;;;2.97;;
46090;SDS011;31826;53.572;10.170;2023-07-31T04:45:47;6.53;;;2.60;;
46090;SDS011;31826;53.572;10.170;2023-07-31T04:48:13;5.97;;;2.58;;
46090;SDS011;31826;53.572;10.170;2023-07-31T04:50:39;6.20;;;2.40;;
46090;SDS011;31826;53.572;10.170;2023-07-31T04:53:05;5.43;;;2.40;;
46090;SDS011;31826;53.572;10.170;2023-07-31T04:55:31;7.10;;;2.60;;
46090;SDS011;31826;53.572;10.170;2023-07-31T04:57:57;4.35;;;2.30;;
46090;SDS011;31826;53.572;10.170;2023-07-31T05:00:26;5.53;;;2.40;;
46090;SDS011;31826;53.572;10.170;2023-07-31T05:02:51;4.55;;;2.30;;
46090;SDS011;31826;53.572;10.170;2023-07-31T05:05:17;5.93;;;2.38;;
46090;SDS011;31826;53.572;10.170;2023-07-31T05:07:43;5.75;;;2.70;;
46090;SDS011;31826;53.572;10.170;2023-07-31T05:10:08;4.93;;;2.30;;
46090;SDS011;31826;53.572;10.170;2023-07-31T05:12:34;6.03;;;2.50;;
46090;SDS011;31826;53.572;10.170;2023-07-31T05:15:00;4.88;;;2.35;;
46090;SDS011;31826;53.572;10.170;2023-07-31T05:17:25;5.75;;;2.33;;
46090;SDS011;31826;53.572;10.170;2023-07-31T05:19:51;5.15;;;2.28;;
46090;SDS011;31826;53.572;10.170;2023-07-31T05:22:17;5.77;;;2.30;;
46090;SDS011;31826;53.572;10.170;2023-07-31T05:24:42;3.70;;;2.27;;
46090;SDS011;31826;53.572;10.170;2023-07-31T05:27:08;5.20;;;2.35;;
46090;SDS011;31826;53.572;10.170;2023-07-31T05:29:34;5.75;;;2.40;;
46090;SDS011;31826;53.572;10.170;2023-07-31T05:32:00;3.58;;;2.22;;
46090;SDS011;31826;53.572;10.170;2023-07-31T05:34:26;5.10;;;2.37;;
46090;SDS011;31826;53.572;10.170;2023-07-31T05:36:52;5.53;;;2.40;;
46090;SDS011;31826;53.572;10.170;2023-07-31T05:39:17;4.63;;;2.10;;
46090;SDS011;31826;53.572;10.170;2023-07-31T05:41:44;5.10;;;2.38;;
46090;SDS011;31826;53.572;10.170;2023-07-31T05:44:10;3.87;;;2.10;;
46090;SDS011;31826;53.572;10.170;2023-07-31T05:46:36;4.17;;;2.30;;
46090;SDS011;31826;53.572;10.170;2023-07-31T05:49:02;5.55;;;2.30;;
46090;SDS011;31826;53.572;10.170;2023-07-31T05:51:27;4.30;;;2.40;;
46090;SDS011;31826;53.572;10.170;2023-07-31T05:53:53;4.50;;;2.30;;
46090;SDS011;31826;53.572;10.170;2023-07-31T05:56:19;4.95;;;2.35;;
46090;SDS011;31826;53.572;10.170;2023-07-31T05:58:44;5.10;;;2.50;;
46090;SDS011;31826;53.572;10.170;2023-07-31T06:01:10;5.70;;;2.37;;
46090;SDS011;31826;53.572;10.170;2023-07-31T06:03:36;4.43;;;2.20;;
46090;SDS011;31826;53.572;10.170;2023-07-31T06:06:01;3.45;;;2.10;;
46090;SDS011;31826;53.572;10.170;2023-07-31T06:08:27;4.85;;;2.15;;
46090;SDS011;31826;53.572;10.170;2023-07-31T06:10:53;3.93;;;2.03;;
46090;SDS011;31826;53.572;10.170;2023-07-31T06:13:18;4.53;;;2.17;;
46090;SDS011;31826;53.572;10.170;2023-07-31T06:15:44;5.82;;;2.38;;
46090;SDS011;31826;53.572;10.170;2023-07-31T06:18:10;5.18;;;2.17;;
46090;SDS011;31826;53.572;10.170;2023-07-31T06:20:35;5.85;;;2.40;;
46090;SDS011;31826;53.572;10.170;2023-07-31T06:23:01;6.30;;;2.47;;
46090;SDS011;31826;53.572;10.170;2023-07-31T06:25:27;3.65;;;2.28;;
46090;SDS011;31826;53.572;10.170;2023-07-31T06:27:53;7.78;;;2.55;;
46090;SDS011;31826;53.572;10.170;2023-07-31T06:30:18;3.90;;;2.30;;
46090;SDS011;31826;53.572;10.170;2023-07-31T06:32:44;5.13;;;2.23;;
46090;SDS011;31826;53.572;10.170;2023-07-31T06:35:10;5.80;;;2.40;;
46090;SDS011;31826;53.572;10.170;2023-07-31T06:37:35;5.05;;;2.47;;
46090;SDS011;31826;53.572;10.170;2023-07-31T06:40:01;4.40;;;2.20;;
46090;SDS011;31826;53.572;10.170;2023-07-31T06:42:27;4.70;;;2.50;;
46090;SDS011;31826;53.572;10.170;2023-07-31T06:44:52;5.37;;;2.50;;
46090;SDS011;31826;53.572;10.170;2023-07-31T06:47:18;6.63;;;2.70;;
46090;SDS011;31826;53.572;10.170;2023-07-31T06:49:44;4.43;;;2.35;;
46090;SDS011;31826;53.572;10.170;2023-07-31T06:52:10;6.50;;;2.55;;
46090;SDS011;31826;53.572;10.170;2023-07-31T06:54:36;5.63;;;2.55;;
46090;SDS011;31826;53.572;10.170;2023-07-31T06:57:01;4.70;;;2.58;;
46090;SDS011;31826;53.572;10.170;2023-07-31T06:59:28;5.28;;;2.45;;
46090;SDS011;31826;53.572;10.170;2023-07-31T07:01:54;6.07;;;2.40;;
46090;SDS011;31826;53.572;10.170;2023-07-31T07:04:20;5.70;;;2.43;;
46090;SDS011;31826;53.572;10.170;2023-07-31T07:06:45;4.83;;;2.27;;
46090;SDS011;31826;53.572;10.170;2023-07-31T07:09:11;5.43;;;2.50;;
46090;SDS011;31826;53.572;10.170;2023-07-31T07:11:37;5.28;;;2.50;;
46090;SDS011;31826;53.572;10.170;2023-07-31T07:14:03;3.88;;;2.10;;
46090;SDS011;31826;53.572;10.170;2023-07-31T07:16:28;3.63;;;2.22;;
46090;SDS011;31826;53.572;10.170;2023-07-31T07:18:54;4.40;;;2.10;;
46090;SDS011;31826;53.572;10.170;2023-07-31T07:21:20;5.10;;;2.20;;
46090;SDS011;31826;53.572;10.170;2023-07-31T07:23:45;5.38;;;2.42;;
46090;SDS011;31826;53.572;10.170;2023-07-31T07:26:11;4.57;;;2.35;;
46090;SDS011;31826;53.572;10.170;2023-07-31T07:28:37;3.72;;;2.13;;
46090;SDS011;31826;53.572;10.170;2023-07-31T07:31:02;4.53;;;2.20;;
46090;SDS011;31826;53.572;10.170;2023-07-31T07:33:28;3.90;;;2.13;;
46090;SDS011;31826;53.572;10.170;2023-07-31T07:35:54;4.53;;;2.10;;
46090;SDS011;31826;53.572;10.170;2023-07-31T07:38:19;3.83;;;2.15;;
46090;SDS011;31826;53.572;10.170;2023-07-31T07:40:45;3.10;;;1.90;;
46090;SDS011;31826;53.572;10.170;2023-07-31T07:43:15;3.58;;;1.85;;
46090;SDS011;31826;53.572;10.170;2023-07-31T07:45:41;4.10;;;1.80;;
46090;SDS011;31826;53.572;10.170;2023-07-31T07:48:07;3.40;;;1.90;;
46090;SDS011;31826;53.572;10.170;2023-07-31T07:50:32;2.13;;;1.50;;
46090;SDS011;31826;53.572;10.170;2023-07-31T07:52:58;3.43;;;1.70;;
46090;SDS011;31826;53.572;10.170;2023-07-31T07:55:24;2.83;;;1.53;;
46090;SDS011;31826;53.572;10.170;2023-07-31T07:57:49;3.00;;;1.67;;
46090;SDS011;31826;53.572;10.170;2023-07-31T08:00:15;4.22;;;1.77;;
46090;SDS011;31826;53.572;10.170;2023-07-31T08:02:42;3.83;;;1.70;;
46090;SDS011;31826;53.572;10.170;2023-07-31T08:05:08;2.42;;;1.70;;
46090;SDS011;31826;53.572;10.170;2023-07-31T08:07:34;2.92;;;1.70;;
46090;SDS011;31826;53.572;10.170;2023-07-31T08:09:59;4.05;;;1.83;;
46090;SDS011;31826;53.572;10.170;2023-07-31T08:12:25;2.63;;;1.50;;
46090;SDS011;31826;53.572;10.170;2023-07-31T08:14:51;3.20;;;1.90;;
46090;SDS011;31826;53.572;10.170;2023-07-31T08:17:17;3.60;;;1.70;;
46090;SDS011;31826;53.572;10.170;2023-07-31T08:19:42;4.50;;;1.60;;
46090;SDS011;31826;53.572;10.170;2023-07-31T08:22:09;3.43;;;1.63;;
46090;SDS011;31826;53.572;10.170;2023-07-31T08:24:34;3.10;;;1.83;;
46090;SDS011;31826;53.572;10.170;2023-07-31T08:27:00;3.23;;;1.80;;
46090;SDS011;31826;53.572;10.170;2023-07-31T08:29:26;4.65;;;1.73;;
46090;SDS011;31826;53.572;10.170;2023-07-31T08:31:51;2.40;;;1.75;;
46090;SDS011;31826;53.572;10.170;2023-07-31T08:34:17;4.43;;;1.80;;
46090;SDS011;31826;53.572;10.170;2023-07-31T08:36:44;5.57;;;1.80;;
46090;SDS011;31826;53.572;10.170;2023-07-31T08:39:10;5.07;;;2.10;;
46090;SDS011;31826;53.572;10.170;2023-07-31T08:41:39;2.43;;;1.70;;
46090;SDS011;31826;53.572;10.170;2023-07-31T08:44:04;2.85;;;1.50;;
46090;SDS011;31826;53.572;10.170;2023-07-31T08:46:32;2.22;;;1.50;;
46090;SDS011;31826;53.572;10.170;2023-07-31T08:48:59;1.92;;;1.40;;
46090;SDS011;31826;53.572;10.170;2023-07-31T08:51:25;3.30;;;1.55;;
46090;SDS011;31826;53.572;10.170;2023-07-31T08:53:52;2.13;;;1.50;;
46090;SDS011;31826;53.572;10.170;2023-07-31T08:56:18;3.67;;;1.70;;
46090;SDS011;31826;53.572;10.170;2023-07-31T08:58:44;3.47;;;1.80;;
46090;SDS011;31826;53.572;10.170;2023-07-31T09:01:11;1.83;;;1.50;;
46090;SDS011;31826;53.572;10.170;2023-07-31T09:03:38;1.65;;;1.38;;
46090;SDS011;31826;53.572;10.170;2023-07-31T09:06:05;2.57;;;1.30;;
46090;SDS011;31826;53.572;10.170;2023-07-31T09:08:32;1.67;;;1.20;;
46090;SDS011;31826;53.572;10.170;2023-07-31T09:10:59;1.55;;;1.23;;
46090;SDS011;31826;53.572;10.170;2023-07-31T09:13:28;1.73;;;1.27;;
46090;SDS011;31826;53.572;10.170;2023-07-31T09:15:55;2.40;;;1.30;;
46090;SDS011;31826;53.572;10.170;2023-07-31T09:18:20;2.57;;;1.37;;
46090;SDS011;31826;53.572;10.170;2023-07-31T09:21:08;1.10;;;1.00;;
46090;SDS011;31826;53.572;10.170;2023-07-31T09:23:40;4.27;;;1.40;;
46090;SDS011;31826;53.572;10.170;2023-07-31T09:26:28;2.35;;;0.95;;
46090;SDS011;31826;53.572;10.170;2023-07-31T09:29:01;0.95;;;0.82;;
46090;SDS011;31826;53.572;10.170;2023-07-31T09:31:33;0.90;;;0.90;;
46090;SDS011;31826;53.572;10.170;2023-07-31T09:34:04;1.00;;;0.90;;
46090;SDS011;31826;53.572;10.170;2023-07-31T09:36:30;1.40;;;1.10;;
46090;SDS011;31826;53.572;10.170;2023-07-31T09:38:58;1.60;;;1.10;;
46090;SDS011;31826;53.572;10.170;2023-07-31T09:41:28;1.48;;;1.00;;
46090;SDS011;31826;53.572;10.170;2023-07-31T09:43:54;3.60;;;1.20;;
46090;SDS011;31826;53.572;10.170;2023-07-31T09:46:20;1.58;;;1.20;;
46090;SDS011;31826;53.572;10.170;2023-07-31T09:48:46;1.98;;;0.98;;
46090;SDS011;31826;53.572;10.170;2023-07-31T09:51:12;2.55;;;1.17;;
46090;SDS011;31826;53.572;10.170;2023-07-31T09:53:38;1.70;;;1.20;;
46090;SDS011;31826;53.572;10.170;2023-07-31T09:56:04;1.52;;;1.15;;
46090;SDS011;31826;53.572;10.170;2023-07-31T09:58:30;1.25;;;1.00;;
46090;SDS011;31826;53.572;10.170;2023-07-31T10:00:59;1.20;;;0.90;;
46090;SDS011;31826;53.572;10.170;2023-07-31T10:03:27;1.45;;;1.00;;
46090;SDS011;31826;53.572;10.170;2023-07-31T10:05:55;2.33;;;1.13;;
46090;SDS011;31826;53.572;10.170;2023-07-31T10:08:23;1.30;;;1.00;;
46090;SDS011;31826;53.572;10.170;2023-07-31T10:10:54;1.55;;;1.20;;
46090;SDS011;31826;53.572;10.170;2023-07-31T10:13:27;2.65;;;1.20;;
46090;SDS011;31826;53.572;10.170;2023-07-31T10:15:54;4.80;;;1.67;;
46090;SDS011;31826;53.572;10.170;2023-07-31T10:18:24;3.03;;;1.20;;
46090;SDS011;31826;53.572;10.170;2023-07-31T10:20:50;1.20;;;1.10;;
46090;SDS011;31826;53.572;10.170;2023-07-31T10:23:17;1.23;;;1.08;;
46090;SDS011;31826;53.572;10.170;2023-07-31T10:25:43;1.47;;;1.07;;
46090;SDS011;31826;53.572;10.170;2023-07-31T10:28:12;2.75;;;1.35;;
46090;SDS011;31826;53.572;10.170;2023-07-31T10:30:38;1.77;;;1.15;;
46090;SDS011;31826;53.572;10.170;2023-07-31T10:33:05;1.75;;;1.10;;
46090;SDS011;31826;53.572;10.170;2023-07-31T10:35:31;1.73;;;1.15;;
46090;SDS011;31826;53.572;10.170;2023-07-31T10:38:03;1.48;;;1.00;;
46090;SDS011;31826;53.572;10.170;2023-07-31T10:40:36;1.13;;;0.90;;
46090;SDS011;31826;53.572;10.170;2023-07-31T10:43:02;1.98;;;1.08;;
46090;SDS011;31826;53.572;10.170;2023-07-31T10:48:02;1.48;;;1.10;;
46090;SDS011;31826;53.572;10.170;2023-07-31T10:50:29;1.70;;;1.48;;
46090;SDS011;31826;53.572;10.170;2023-07-31T10:52:59;1.35;;;1.08;;
46090;SDS011;31826;53.572;10.170;2023-07-31T10:57:55;1.77;;;1.17;;
46090;SDS011;31826;53.572;10.170;2023-07-31T11:00:26;1.52;;;1.10;;
46090;SDS011;31826;53.572;10.170;2023-07-31T11:10:46;5.30;;;2.40;;
46090;SDS011;31826;53.572;10.170;2023-07-31T11:13:14;6.35;;;2.47;;
46090;SDS011;31826;53.572;10.170;2023-07-31T11:15:40;5.20;;;2.50;;
46090;SDS011;31826;53.572;10.170;2023-07-31T11:18:06;5.25;;;2.20;;
46090;SDS011;31826;53.572;10.170;2023-07-31T11:20:33;8.07;;;2.40;;
46090;SDS011;31826;53.572;10.170;2023-07-31T11:23:04;6.60;;;2.53;;
46090;SDS011;31826;53.572;10.170;2023-07-31T11:25:32;8.77;;;3.72;;
46090;SDS011;31826;53.572;10.170;2023-07-31T11:28:05;5.75;;;2.55;;
46090;SDS011;31826;53.572;10.170;2023-07-31T11:30:32;6.20;;;2.72;;
46090;SDS011;31826;53.572;10.170;2023-07-31T11:32:59;7.13;;;2.80;;
46090;SDS011;31826;53.572;10.170;2023-07-31T11:35:29;5.97;;;2.73;;
46090;SDS011;31826;53.572;10.170;2023-07-31T11:37:59;8.15;;;3.03;;
46090;SDS011;31826;53.572;10.170;2023-07-31T11:40:25;8.20;;;3.88;;
46090;SDS011;31826;53.572;10.170;2023-07-31T11:42:55;8.23;;;3.43;;
46090;SDS011;31826;53.572;10.170;2023-07-31T11:45:24;10.68;;;3.47;;
46090;SDS011;31826;53.572;10.170;2023-07-31T11:47:51;9.90;;;3.67;;
46090;SDS011;31826;53.572;10.170;2023-07-31T11:50:17;7.80;;;2.95;;
46090;SDS011;31826;53.572;10.170;2023-07-31T11:52:44;6.35;;;2.60;;
46090;SDS011;31826;53.572;10.170;2023-07-31T11:55:11;4.75;;;2.13;;
46090;SDS011;31826;53.572;10.170;2023-07-31T11:57:38;5.05;;;2.17;;
46090;SDS011;31826;53.572;10.170;2023-07-31T12:00:06;7.15;;;2.50;;
46090;SDS011;31826;53.572;10.170;2023-07-31T12:02:34;6.20;;;2.50;;
46090;SDS011;31826;53.572;10.170;2023-07-31T12:05:01;4.85;;;2.20;;
46090;SDS011;31826;53.572;10.170;2023-07-31T12:07:27;5.35;;;2.05;;
46090;SDS011;31826;53.572;10.170;2023-07-31T12:09:55;3.60;;;1.90;;
46090;SDS011;31826;53.572;10.170;2023-07-31T12:12:22;4.18;;;2.08;;
46090;SDS011;31826;53.572;10.170;2023-07-31T12:14:50;3.67;;;1.77;;
46090;SDS011;31826;53.572;10.170;2023-07-31T12:17:16;4.05;;;1.90;;
46090;SDS011;31826;53.572;10.170;2023-07-31T12:19:43;3.15;;;1.70;;
46090;SDS011;31826;53.572;10.170;2023-07-31T12:22:13;3.60;;;2.00;;
46090;SDS011;31826;53.572;10.170;2023-07-31T12:24:43;3.50;;;1.88;;
46090;SDS011;31826;53.572;10.170;2023-07-31T12:27:13;4.00;;;2.00;;
46090;SDS011;31826;53.572;10.170;2023-07-31T12:29:41;3.65;;;1.60;;
46090;SDS011;31826;53.572;10.170;2023-07-31T12:32:21;2.38;;;1.08;;
46090;SDS011;31826;53.572;10.170;2023-07-31T12:34:50;1.33;;;1.00;;
46090;SDS011;31826;53.572;10.170;2023-07-31T12:37:16;1.35;;;0.80;;
46090;SDS011;31826;53.572;10.170;2023-07-31T12:39:42;1.40;;;0.80;;
46090;SDS011;31826;53.572;10.170;2023-07-31T12:42:08;0.77;;;0.77;;
46090;SDS011;31826;53.572;10.170;2023-07-31T12:44:34;0.75;;;0.70;;
46090;SDS011;31826;53.572;10.170;2023-07-31T12:46:59;0.65;;;0.65;;
46090;SDS011;31826;53.572;10.170;2023-07-31T12:49:25;0.43;;;0.43;;
46090;SDS011;31826;53.572;10.170;2023-07-31T12:51:51;0.60;;;0.60;;
46090;SDS011;31826;53.572;10.170;2023-07-31T12:54:16;0.50;;;0.50;;
46090;SDS011;31826;53.572;10.170;2023-07-31T12:56:42;2.40;;;0.65;;
46090;SDS011;31826;53.572;10.170;2023-07-31T12:59:08;0.70;;;0.60;;
46090;SDS011;31826;53.572;10.170;2023-07-31T13:01:34;0.93;;;0.60;;
46090;SDS011;31826;53.572;10.170;2023-07-31T13:03:59;0.60;;;0.60;;
46090;SDS011;31826;53.572;10.170;2023-07-31T13:06:25;0.40;;;0.40;;
46090;SDS011;31826;53.572;10.170;2023-07-31T13:08:51;0.70;;;0.60;;
46090;SDS011;31826;53.572;10.170;2023-07-31T13:11:17;1.60;;;0.60;;
46090;SDS011;31826;53.572;10.170;2023-07-31T13:13:42;0.80;;;0.60;;
46090;SDS011;31826;53.572;10.170;2023-07-31T13:16:08;1.23;;;0.50;;
46090;SDS011;31826;53.572;10.170;2023-07-31T13:18:34;0.60;;;0.50;;
46090;SDS011;31826;53.572;10.170;2023-07-31T13:20:59;1.20;;;0.60;;
46090;SDS011;31826;53.572;10.170;2023-07-31T13:23:25;0.60;;;0.60;;
46090;SDS011;31826;53.572;10.170;2023-07-31T13:25:51;0.43;;;0.43;;
46090;SDS011;31826;53.572;10.170;2023-07-31T13:28:16;0.70;;;0.70;;
46090;SDS011;31826;53.572;10.170;2023-07-31T13:30:42;0.50;;;0.50;;
46090;SDS011;31826;53.572;10.170;2023-07-31T13:33:08;0.50;;;0.50;;
46090;SDS011;31826;53.572;10.170;2023-07-31T13:35:33;1.58;;;0.60;;
46090;SDS011;31826;53.572;10.170;2023-07-31T13:37:59;2.10;;;0.60;;
46090;SDS011;31826;53.572;10.170;2023-07-31T13:40:25;1.30;;;0.40;;
46090;SDS011;31826;53.572;10.170;2023-07-31T13:42:50;0.65;;;0.50;;
46090;SDS011;31826;53.572;10.170;2023-07-31T13:45:16;1.60;;;0.60;;
46090;SDS011;31826;53.572;10.170;2023-07-31T13:47:42;1.60;;;0.70;;
46090;SDS011;31826;53.572;10.170;2023-07-31T13:50:07;1.00;;;0.50;;
46090;SDS011;31826;53.572;10.170;2023-07-31T13:52:33;1.00;;;0.70;;
46090;SDS011;31826;53.572;10.170;2023-07-31T13:54:59;1.30;;;0.70;;
46090;SDS011;31826;53.572;10.170;2023-07-31T13:57:25;1.35;;;0.70;;
46090;SDS011;31826;53.572;10.170;2023-07-31T13:59:50;2.00;;;0.90;;
46090;SDS011;31826;53.572;10.170;2023-07-31T14:02:16;1.27;;;1.03;;
46090;SDS011;31826;53.572;10.170;2023-07-31T14:04:41;2.20;;;0.80;;
46090;SDS011;31826;53.572;10.170;2023-07-31T14:07:07;1.15;;;0.70;;
46090;SDS011;31826;53.572;10.170;2023-07-31T14:09:33;2.45;;;1.00;;
46090;SDS011;31826;53.572;10.170;2023-07-31T14:11:59;2.77;;;0.70;;
46090;SDS011;31826;53.572;10.170;2023-07-31T14:14:24;2.43;;;0.73;;
46090;SDS011;31826;53.572;10.170;2023-07-31T14:16:50;2.30;;;1.00;;
46090;SDS011;31826;53.572;10.170;2023-07-31T14:19:16;0.90;;;0.75;;
46090;SDS011;31826;53.572;10.170;2023-07-31T14:21:41;0.87;;;0.70;;
46090;SDS011;31826;53.572;10.170;2023-07-31T14:24:07;1.10;;;0.80;;
46090;SDS011;31826;53.572;10.170;2023-07-31T14:26:33;2.70;;;0.70;;
46090;SDS011;31826;53.572;10.170;2023-07-31T14:28:58;2.25;;;0.93;;
46090;SDS011;31826;53.572;10.170;2023-07-31T14:31:24;1.35;;;1.00;;
46090;SDS011;31826;53.572;10.170;2023-07-31T14:33:50;3.63;;;1.53;;
46090;SDS011;31826;53.572;10.170;2023-07-31T14:36:15;2.63;;;1.17;;
46090;SDS011;31826;53.572;10.170;2023-07-31T14:38:41;1.02;;;0.80;;
46090;SDS011;31826;53.572;10.170;2023-07-31T14:41:06;0.75;;;0.75;;
46090;SDS011;31826;53.572;10.170;2023-07-31T14:43:32;1.40;;;0.90;;
46090;SDS011;31826;53.572;10.170;2023-07-31T14:45:58;2.03;;;1.10;;